createdAt,value
2016-04-30T00:00:37.553Z,18.94
2016-04-30T00:01:38.103Z,18.91
2016-04-30T00:02:38.105Z,18.87
2016-04-30T00:03:38.404Z,18.84
2016-04-30T00:04:37.939Z,18.79
2016-04-30T00:05:37.535Z,18.78
2016-04-30T00:06:37.694Z,18.76
2016-04-30T00:07:37.885Z,18.84
2016-04-30T00:08:37.528Z,18.93
2016-04-30T00:09:37.671Z,18.84
2016-04-30T00:10:38.080Z,18.86
2016-04-30T00:11:37.926Z,18.93
2016-04-30T00:12:37.726Z,18.91
2016-04-30T00:13:37.870Z,18.91
2016-04-30T00:14:37.873Z,18.97
2016-04-30T00:15:37.906Z,18.99
2016-04-30T00:16:37.909Z,18.97
2016-04-30T00:17:37.864Z,19
2016-04-30T00:18:37.867Z,18.93
2016-04-30T00:19:37.870Z,18.93
2016-04-30T00:20:37.295Z,19.07
2016-04-30T00:21:37.672Z,19
2016-04-30T00:22:37.862Z,18.97
2016-04-30T00:23:37.897Z,18.96
2016-04-30T00:24:37.727Z,18.99
2016-04-30T00:25:37.637Z,18.99
2016-04-30T00:26:37.655Z,19
2016-04-30T00:27:37.830Z,18.9
2016-04-30T00:28:37.472Z,18.99
2016-04-30T00:29:37.616Z,19.02
2016-04-30T00:30:37.618Z,18.9
2016-04-30T00:31:37.856Z,19.02
2016-04-30T00:32:37.686Z,19
2016-04-30T00:33:37.674Z,18.99
2016-04-30T00:34:37.426Z,18.99
2016-04-30T00:35:38.022Z,19.02
2016-04-30T00:36:37.432Z,18.96
2016-04-30T00:37:37.607Z,18.99
2016-04-30T00:38:38.015Z,18.99
2016-04-30T00:39:37.595Z,19
2016-04-30T00:40:37.801Z,18.99
2016-04-30T00:41:37.585Z,18.96
2016-04-30T00:42:37.791Z,18.9
2016-04-30T00:43:37.654Z,18.91
2016-04-30T00:44:37.781Z,18.94
2016-04-30T00:45:37.784Z,18.78
2016-04-30T00:46:37.787Z,18.79
2016-04-30T00:47:37.773Z,18.91
2016-04-30T00:48:37.932Z,18.82
2016-04-30T00:49:37.623Z,18.91
2016-04-30T00:50:37.969Z,18.89
2016-04-30T00:51:37.972Z,18.87
2016-04-30T00:52:37.975Z,18.93
2016-04-30T00:53:37.978Z,18.94
2016-04-30T00:54:37.964Z,18.9
2016-04-30T00:55:37.951Z,18.97
2016-04-30T00:56:37.750Z,18.89
2016-04-30T00:57:37.535Z,18.93
2016-04-30T00:58:37.350Z,18.93
2016-04-30T00:59:37.541Z,18.79
2016-04-30T01:00:37.746Z,18.78
2016-04-30T01:01:37.733Z,18.78
2016-04-30T01:02:37.532Z,18.79
2016-04-30T01:03:37.739Z,18.81
2016-04-30T01:04:37.741Z,18.79
2016-04-30T01:05:37.743Z,18.81
2016-04-30T01:06:37.528Z,18.81
2016-04-30T01:07:37.718Z,18.84
2016-04-30T01:08:37.721Z,18.87
2016-04-30T01:09:37.520Z,18.84
2016-04-30T01:10:37.710Z,18.84
2016-04-30T01:11:37.916Z,18.84
2016-04-30T01:12:37.310Z,18.79
2016-04-30T01:13:37.703Z,18.84
2016-04-30T01:14:37.346Z,18.81
2016-04-30T01:15:37.552Z,18.82
2016-04-30T01:16:37.492Z,18.79
2016-04-30T01:17:37.495Z,18.82
2016-04-30T01:18:37.295Z,18.81
2016-04-30T01:19:37.687Z,18.74
2016-04-30T01:20:37.690Z,18.72
2016-04-30T01:21:37.896Z,18.69
2016-04-30T01:22:37.680Z,18.69
2016-04-30T01:23:37.683Z,18.69
2016-04-30T01:24:37.733Z,18.72
2016-04-30T01:25:37.672Z,18.57
2016-04-30T01:26:37.269Z,18.53
2016-04-30T01:27:37.678Z,18.54
2016-04-30T01:28:37.868Z,18.6
2016-04-30T01:29:37.652Z,18.56
2016-04-30T01:30:37.513Z,18.66
2016-04-30T01:31:37.297Z,18.66
2016-04-30T01:32:37.255Z,18.65
2016-04-30T01:33:37.710Z,18.65
2016-04-30T01:34:37.650Z,18.69
2016-04-30T01:35:37.308Z,18.66
2016-04-30T01:36:37.452Z,18.71
2016-04-30T01:37:37.439Z,18.66
2016-04-30T01:38:37.629Z,18.69
2016-04-30T01:39:37.851Z,18.6
2016-04-30T01:40:37.635Z,18.63
2016-04-30T01:41:37.434Z,18.71
2016-04-30T01:42:37.421Z,18.74
2016-04-30T01:43:37.268Z,18.74
2016-04-30T01:44:37.615Z,18.69
2016-04-30T01:45:37.618Z,18.69
2016-04-30T01:46:37.604Z,18.72
2016-04-30T01:47:37.403Z,18.69
2016-04-30T01:48:37.422Z,18.78
2016-04-30T01:49:37.612Z,18.78
2016-04-30T01:50:37.442Z,18.84
2016-04-30T01:51:37.602Z,18.75
2016-04-30T01:52:37.417Z,18.81
2016-04-30T01:53:37.639Z,18.81
2016-04-30T01:54:37.391Z,18.79
2016-04-30T01:55:37.597Z,18.81
2016-04-30T01:56:37.178Z,18.81
2016-04-30T01:57:37.633Z,18.81
2016-04-30T01:58:37.433Z,18.84
2016-04-30T01:59:37.592Z,18.89
2016-04-30T02:00:37.361Z,18.86
2016-04-30T02:01:37.378Z,18.82
2016-04-30T02:02:37.350Z,18.79
2016-04-30T02:03:37.384Z,18.82
2016-04-30T02:04:37.356Z,18.82
2016-04-30T02:05:37.561Z,18.76
2016-04-30T02:06:37.408Z,18.81
2016-04-30T02:07:37.191Z,18.79
2016-04-30T02:08:37.132Z,18.71
2016-04-30T02:09:37.354Z,18.68
2016-04-30T02:10:37.606Z,18.76
2016-04-30T02:11:37.749Z,18.75
2016-04-30T02:12:37.752Z,18.72
2016-04-30T02:13:37.536Z,18.72
2016-04-30T02:14:37.523Z,18.75
2016-04-30T02:15:37.728Z,18.71
2016-04-30T02:16:37.731Z,18.75
2016-04-30T02:17:37.751Z,18.72
2016-04-30T02:18:39.503Z,18.71
2016-04-30T02:19:37.318Z,18.72
2016-04-30T02:20:37.711Z,18.71
2016-04-30T02:21:37.511Z,18.65
2016-04-30T02:22:37.514Z,18.63
2016-04-30T02:23:37.501Z,18.66
2016-04-30T02:24:37.503Z,18.6
2016-04-30T02:25:37.490Z,18.54
2016-04-30T02:26:37.508Z,18.56
2016-04-30T02:27:37.495Z,18.5
2016-04-30T02:28:37.545Z,18.51
2016-04-30T02:29:37.485Z,18.53
2016-04-30T02:30:37.504Z,18.53
2016-04-30T02:31:37.491Z,18.53
2016-04-30T02:32:37.072Z,18.54
2016-04-30T02:33:37.496Z,18.51
2016-04-30T02:34:37.671Z,18.56
2016-04-30T02:35:37.532Z,18.57
2016-04-30T02:36:37.519Z,18.5
2016-04-30T02:37:37.272Z,18.57
2016-04-30T02:38:37.682Z,18.54
2016-04-30T02:39:37.465Z,18.51
2016-04-30T02:40:36.937Z,18.5
2016-04-30T02:41:37.252Z,18.56
2016-04-30T02:42:37.457Z,18.42
2016-04-30T02:43:37.445Z,18.53
2016-04-30T02:44:37.291Z,18.5
2016-04-30T02:45:37.654Z,18.45
2016-04-30T02:46:37.249Z,18.5
2016-04-30T02:47:37.237Z,18.5
2016-04-30T02:48:37.442Z,18.57
2016-04-30T02:49:37.071Z,18.54
2016-04-30T02:50:37.432Z,18.57
2016-04-30T02:51:37.279Z,18.56
2016-04-30T02:52:37.281Z,18.63
2016-04-30T02:53:37.440Z,18.57
2016-04-30T02:54:37.411Z,18.61
2016-04-30T02:55:37.414Z,18.61
2016-04-30T02:56:37.402Z,18.69
2016-04-30T02:57:37.420Z,18.68
2016-04-30T02:58:37.204Z,18.71
2016-04-30T02:59:37.206Z,18.66
2016-04-30T03:00:37.193Z,18.68
2016-04-30T03:01:37.399Z,18.72
2016-04-30T03:02:37.605Z,18.68
2016-04-30T03:03:37.186Z,18.69
2016-04-30T03:04:38.470Z,18.71
2016-04-30T03:05:37.394Z,18.69
2016-04-30T03:06:37.600Z,18.71
2016-04-30T03:07:37.588Z,18.68
2016-04-30T03:08:37.388Z,18.68
2016-04-30T03:09:37.374Z,18.71
2016-04-30T03:10:37.377Z,18.69
2016-04-30T03:11:37.160Z,18.75
2016-04-30T03:12:37.366Z,18.74
2016-04-30T03:13:37.010Z,18.71
2016-04-30T03:14:37.559Z,18.79
2016-04-30T03:15:37.360Z,18.84
2016-04-30T03:16:37.143Z,18.72
2016-04-30T03:17:37.146Z,18.75
2016-04-30T03:18:36.945Z,18.82
2016-04-30T03:19:37.401Z,18.78
2016-04-30T03:20:37.184Z,18.78
2016-04-30T03:21:36.937Z,18.71
2016-04-30T03:22:37.331Z,18.74
2016-04-30T03:23:37.334Z,18.79
2016-04-30T03:24:36.930Z,18.79
2016-04-30T03:25:36.918Z,18.75
2016-04-30T03:26:37.311Z,18.84
2016-04-30T03:27:37.313Z,18.82
2016-04-30T03:28:37.112Z,18.79
2016-04-30T03:29:37.115Z,18.84
2016-04-30T03:30:37.103Z,18.79
2016-04-30T03:31:37.511Z,18.75
2016-04-30T03:32:37.360Z,18.76
2016-04-30T03:33:37.618Z,18.74
2016-04-30T03:34:37.566Z,18.79
2016-04-30T03:35:37.558Z,18.75
2016-04-30T03:36:37.770Z,18.76
2016-04-30T03:37:37.591Z,18.75
2016-04-30T03:38:37.800Z,18.71
2016-04-30T03:39:37.603Z,18.69
2016-04-30T03:40:37.468Z,18.66
2016-04-30T03:41:37.834Z,18.72
2016-04-30T03:42:37.281Z,18.71
2016-04-30T03:43:37.697Z,18.66
2016-04-30T03:44:37.847Z,18.63
2016-04-30T03:45:37.669Z,18.72
2016-04-30T03:46:37.461Z,18.63
2016-04-30T03:47:37.309Z,18.71
2016-04-30T03:48:37.861Z,18.78
2016-04-30T03:49:37.758Z,18.74
2016-04-30T03:50:37.669Z,18.81
2016-04-30T03:51:37.456Z,18.75
2016-04-30T03:52:37.460Z,18.72
2016-04-30T03:53:37.870Z,18.69
2016-04-30T03:54:37.858Z,18.63
2016-04-30T03:55:37.502Z,18.65
2016-04-30T03:56:37.645Z,18.6
2016-04-30T03:57:37.289Z,18.63
2016-04-30T03:58:37.840Z,18.59
2016-04-30T03:59:37.639Z,18.63
2016-04-30T04:00:37.643Z,18.69
2016-04-30T04:01:37.849Z,18.71
2016-04-30T04:02:37.649Z,18.69
2016-04-30T04:03:37.683Z,18.71
2016-04-30T04:04:37.841Z,18.68
2016-04-30T04:05:37.468Z,18.63
2016-04-30T04:06:37.424Z,18.69
2016-04-30T04:07:37.411Z,18.65
2016-04-30T04:08:37.399Z,18.61
2016-04-30T04:09:37.824Z,18.63
2016-04-30T04:10:37.607Z,18.57
2016-04-30T04:11:37.204Z,18.54
2016-04-30T04:12:37.612Z,18.53
2016-04-30T04:13:37.037Z,18.49
2016-04-30T04:14:37.790Z,18.57
2016-04-30T04:15:37.606Z,18.54
2016-04-30T04:16:37.389Z,18.5
2016-04-30T04:17:37.595Z,18.53
2016-04-30T04:18:37.800Z,18.5
2016-04-30T04:19:38.084Z,18.57
2016-04-30T04:20:37.572Z,18.6
2016-04-30T04:21:37.387Z,18.57
2016-04-30T04:22:37.780Z,18.59
2016-04-30T04:23:37.783Z,18.65
2016-04-30T04:24:37.613Z,18.61
2016-04-30T04:25:37.178Z,18.6
2016-04-30T04:26:37.197Z,18.6
2016-04-30T04:27:37.606Z,18.6
2016-04-30T04:28:37.562Z,18.65
2016-04-30T04:29:37.564Z,18.63
2016-04-30T04:30:37.755Z,18.57
2016-04-30T04:31:37.241Z,18.61
2016-04-30T04:32:37.744Z,18.66
2016-04-30T04:33:37.340Z,18.53
2016-04-30T04:34:37.344Z,18.6
2016-04-30T04:35:37.330Z,18.6
2016-04-30T04:36:37.333Z,18.6
2016-04-30T04:37:37.524Z,18.66
2016-04-30T04:38:37.323Z,18.6
2016-04-30T04:39:37.326Z,18.63
2016-04-30T04:40:37.360Z,18.68
2016-04-30T04:41:37.721Z,18.71
2016-04-30T04:42:37.318Z,18.75
2016-04-30T04:43:37.524Z,18.71
2016-04-30T04:44:37.558Z,18.71
2016-04-30T04:45:37.514Z,18.76
2016-04-30T04:46:37.564Z,18.84
2016-04-30T04:47:37.520Z,18.72
2016-04-30T04:48:37.506Z,18.79
2016-04-30T04:49:37.931Z,18.74
2016-04-30T04:50:37.339Z,18.81
2016-04-30T04:51:37.280Z,18.82
2016-04-30T04:52:37.282Z,18.72
2016-04-30T04:53:37.520Z,18.71
2016-04-30T04:54:37.694Z,18.71
2016-04-30T04:55:37.291Z,18.72
2016-04-30T04:56:37.480Z,18.76
2016-04-30T04:57:37.264Z,18.66
2016-04-30T04:58:37.267Z,18.69
2016-04-30T04:59:37.677Z,18.72
2016-04-30T05:00:37.664Z,18.68
2016-04-30T05:01:37.260Z,18.69
2016-04-30T05:02:37.653Z,18.71
2016-04-30T05:03:37.265Z,18.74
2016-04-30T05:04:37.658Z,18.69
2016-04-30T05:05:37.443Z,18.78
2016-04-30T05:06:37.446Z,18.71
2016-04-30T05:07:37.448Z,18.74
2016-04-30T05:08:37.248Z,18.71
2016-04-30T05:09:37.437Z,18.69
2016-04-30T05:10:37.628Z,18.65
2016-04-30T05:11:37.427Z,18.6
2016-04-30T05:12:37.634Z,18.57
2016-04-30T05:13:37.432Z,18.57
2016-04-30T05:14:37.420Z,18.57
2016-04-30T05:15:37.267Z,18.54
2016-04-30T05:16:37.222Z,18.59
2016-04-30T05:17:37.412Z,18.54
2016-04-30T05:18:37.259Z,18.49
2016-04-30T05:19:37.262Z,18.47
2016-04-30T05:20:37.405Z,18.44
2016-04-30T05:21:37.048Z,18.5
2016-04-30T05:22:37.456Z,18.45
2016-04-30T05:23:37.413Z,18.47
2016-04-30T05:24:37.384Z,18.45
2016-04-30T05:25:37.606Z,18.5
2016-04-30T05:26:37.592Z,18.49
2016-04-30T05:27:37.033Z,18.49
2016-04-30T05:28:37.177Z,18.5
2016-04-30T05:29:37.225Z,18.47
2016-04-30T05:30:37.025Z,18.5
2016-04-30T05:31:37.388Z,18.5
2016-04-30T05:32:37.562Z,18.51
2016-04-30T05:33:37.377Z,18.41
2016-04-30T05:34:37.208Z,18.41
2016-04-30T05:35:37.570Z,18.41
2016-04-30T05:36:37.261Z,18.42
2016-04-30T05:37:37.404Z,18.5
2016-04-30T05:38:37.360Z,18.51
2016-04-30T05:39:37.190Z,18.44
2016-04-30T05:40:37.193Z,18.45
2016-04-30T05:41:36.945Z,18.49
2016-04-30T05:42:37.151Z,18.56
2016-04-30T05:43:37.342Z,18.63
2016-04-30T05:44:37.329Z,18.54
2016-04-30T05:45:36.926Z,18.63
2016-04-30T05:46:37.131Z,18.6
2016-04-30T05:47:37.368Z,18.68
2016-04-30T05:48:37.168Z,18.61
2016-04-30T05:49:37.170Z,18.71
2016-04-30T05:50:37.517Z,18.61
2016-04-30T05:51:37.300Z,18.69
2016-04-30T05:52:37.303Z,18.69
2016-04-30T05:53:37.509Z,18.65
2016-04-30T05:54:37.308Z,18.69
2016-04-30T05:55:37.108Z,18.68
2016-04-30T05:56:37.095Z,18.68
2016-04-30T05:57:37.098Z,18.69
2016-04-30T05:58:36.945Z,18.68
2016-04-30T05:59:36.870Z,18.69
2016-04-30T06:00:37.308Z,18.69
2016-04-30T06:01:36.749Z,18.71
2016-04-30T06:02:37.487Z,18.71
2016-04-30T06:03:36.708Z,18.69
2016-04-30T06:04:37.289Z,18.74
2016-04-30T06:05:36.932Z,18.69
2016-04-30T06:06:37.482Z,18.71
2016-04-30T06:07:37.110Z,18.78
2016-04-30T06:08:37.471Z,18.72
2016-04-30T06:09:37.099Z,18.68
2016-04-30T06:10:37.243Z,18.72
2016-04-30T06:11:36.902Z,18.71
2016-04-30T06:12:37.091Z,18.69
2016-04-30T06:13:37.094Z,18.63
2016-04-30T06:14:37.237Z,18.68
2016-04-30T06:15:37.240Z,18.68
2016-04-30T06:16:37.446Z,18.6
2016-04-30T06:17:37.261Z,18.63
2016-04-30T06:18:37.029Z,18.61
2016-04-30T06:19:37.345Z,18.59
2016-04-30T06:20:37.223Z,18.57
2016-04-30T06:21:37.428Z,18.53
2016-04-30T06:22:37.978Z,18.53
2016-04-30T06:23:36.819Z,18.51
2016-04-30T06:24:37.227Z,18.54
2016-04-30T06:25:36.996Z,18.54
2016-04-30T06:26:37.202Z,18.63
2016-04-30T06:27:37.064Z,18.56
2016-04-30T06:28:36.800Z,18.54
2016-04-30T06:29:37.210Z,18.61
2016-04-30T06:30:36.806Z,18.59
2016-04-30T06:31:37.200Z,18.61
2016-04-30T06:32:37.046Z,18.51
2016-04-30T06:33:37.189Z,18.53
2016-04-30T06:34:37.504Z,18.53
2016-04-30T06:35:36.991Z,18.54
2016-04-30T06:36:37.182Z,18.54
2016-04-30T06:37:37.168Z,18.54
2016-04-30T06:38:37.171Z,18.6
2016-04-30T06:39:36.971Z,18.63
2016-04-30T06:40:37.177Z,18.63
2016-04-30T06:41:36.804Z,18.6
2016-04-30T06:42:37.182Z,18.53
2016-04-30T06:43:36.965Z,18.61
2016-04-30T06:44:37.375Z,18.72
2016-04-30T06:45:37.159Z,18.68
2016-04-30T06:46:37.364Z,18.69
2016-04-30T06:47:37.148Z,18.74
2016-04-30T06:48:37.151Z,18.71
2016-04-30T06:49:37.623Z,18.69
2016-04-30T06:50:37.001Z,18.65
2016-04-30T06:51:37.191Z,18.63
2016-04-30T06:52:36.927Z,18.65
2016-04-30T06:53:36.978Z,18.56
2016-04-30T06:54:37.137Z,18.57
2016-04-30T06:55:37.123Z,18.63
2016-04-30T06:56:36.766Z,18.54
2016-04-30T06:57:36.957Z,18.61
2016-04-30T06:58:36.928Z,18.54
2016-04-30T06:59:37.119Z,18.54
2016-04-30T07:00:36.716Z,18.59
2016-04-30T07:01:37.108Z,18.57
2016-04-30T07:02:37.111Z,18.6
2016-04-30T07:03:37.099Z,18.53
2016-04-30T07:04:38.335Z,18.65
2016-04-30T07:05:37.103Z,18.63
2016-04-30T07:06:37.091Z,18.69
2016-04-30T07:07:36.890Z,18.69
2016-04-30T07:08:37.096Z,18.65
2016-04-30T07:09:37.083Z,18.69
2016-04-30T07:10:37.288Z,18.69
2016-04-30T07:11:36.948Z,18.72
2016-04-30T07:12:37.076Z,18.75
2016-04-30T07:13:37.078Z,18.68
2016-04-30T07:14:37.065Z,18.71
2016-04-30T07:15:36.881Z,18.75
2016-04-30T07:16:36.915Z,18.82
2016-04-30T07:17:37.104Z,18.75
2016-04-30T07:18:37.264Z,18.82
2016-04-30T07:19:37.078Z,18.71
2016-04-30T07:20:37.050Z,18.76
2016-04-30T07:21:36.850Z,18.74
2016-04-30T07:22:36.884Z,18.82
2016-04-30T07:23:36.839Z,18.81
2016-04-30T07:24:37.045Z,18.76
2016-04-30T07:25:37.033Z,18.79
2016-04-30T07:26:36.831Z,18.84
2016-04-30T07:27:37.038Z,18.86
2016-04-30T07:28:37.041Z,18.86
2016-04-30T07:29:36.622Z,18.81
2016-04-30T07:30:37.030Z,18.82
2016-04-30T07:31:37.220Z,18.84
2016-04-30T07:32:36.722Z,18.84
2016-04-30T07:33:36.616Z,18.75
2016-04-30T07:34:36.900Z,18.89
2016-04-30T07:35:37.013Z,18.81
2016-04-30T07:36:36.655Z,18.81
2016-04-30T07:37:37.018Z,18.86
2016-04-30T07:38:37.005Z,18.81
2016-04-30T07:39:37.195Z,18.87
2016-04-30T07:40:36.854Z,18.76
2016-04-30T07:41:36.794Z,18.96
2016-04-30T07:42:36.687Z,18.76
2016-04-30T07:43:37.034Z,18.82
2016-04-30T07:44:37.193Z,18.97
2016-04-30T07:45:36.836Z,18.93
2016-04-30T07:46:36.979Z,18.9
2016-04-30T07:47:36.982Z,18.93
2016-04-30T07:48:37.173Z,18.87
2016-04-30T07:49:37.425Z,18.97
2016-04-30T07:50:36.975Z,18.89
2016-04-30T07:51:36.961Z,18.86
2016-04-30T07:52:36.605Z,18.96
2016-04-30T07:53:36.967Z,18.91
2016-04-30T07:54:37.157Z,18.76
2016-04-30T07:55:36.956Z,18.89
2016-04-30T07:56:36.959Z,18.82
2016-04-30T07:57:36.947Z,18.79
2016-04-30T07:58:36.949Z,18.82
2016-04-30T07:59:37.155Z,18.79
2016-04-30T08:00:36.783Z,18.82
2016-04-30T08:01:36.597Z,18.79
2016-04-30T08:02:37.147Z,18.78
2016-04-30T08:03:36.931Z,18.81
2016-04-30T08:04:39.137Z,18.82
2016-04-30T08:05:37.124Z,18.75
2016-04-30T08:06:36.704Z,18.86
2016-04-30T08:07:36.708Z,18.79
2016-04-30T08:08:36.914Z,18.84
2016-04-30T08:09:36.713Z,18.84
2016-04-30T08:10:36.762Z,18.81
2016-04-30T08:11:36.702Z,18.82
2016-04-30T08:12:37.112Z,18.76
2016-04-30T08:13:36.895Z,18.78
2016-04-30T08:14:36.757Z,18.79
2016-04-30T08:15:36.745Z,18.86
2016-04-30T08:16:37.091Z,18.79
2016-04-30T08:17:37.093Z,18.82
2016-04-30T08:18:37.081Z,18.74
2016-04-30T08:19:37.818Z,18.84
2016-04-30T08:20:36.883Z,18.74
2016-04-30T08:21:36.573Z,18.72
2016-04-30T08:22:36.889Z,18.79
2016-04-30T08:23:36.720Z,18.76
2016-04-30T08:24:36.879Z,18.78
2016-04-30T08:25:36.865Z,18.84
2016-04-30T08:26:36.664Z,18.76
2016-04-30T08:27:36.856Z,18.81
2016-04-30T08:28:36.905Z,18.81
2016-04-30T08:29:36.594Z,18.89
2016-04-30T08:30:36.661Z,18.86
2016-04-30T08:31:36.647Z,18.94
2016-04-30T08:32:37.056Z,18.93
2016-04-30T08:33:37.043Z,18.93
2016-04-30T08:34:37.108Z,18.99
2016-04-30T08:35:36.436Z,18.97
2016-04-30T08:36:36.423Z,19.02
2016-04-30T08:37:37.038Z,19.09
2016-04-30T08:38:36.884Z,19.06
2016-04-30T08:39:36.681Z,18.99
2016-04-30T08:40:36.621Z,19.09
2016-04-30T08:41:36.312Z,19.1
2016-04-30T08:42:36.815Z,19.12
2016-04-30T08:43:37.023Z,19.13
2016-04-30T08:44:36.617Z,19.1
2016-04-30T08:45:36.604Z,19.12
2016-04-30T08:46:36.810Z,19.13
2016-04-30T08:47:36.859Z,19.12
2016-04-30T08:48:36.596Z,19.15
2016-04-30T08:49:36.912Z,19.12
2016-04-30T08:50:36.993Z,19.09
2016-04-30T08:51:36.636Z,19.1
2016-04-30T08:52:36.982Z,19.12
2016-04-30T08:53:36.782Z,19.16
2016-04-30T08:54:36.784Z,19.12
2016-04-30T08:55:36.974Z,19.1
2016-04-30T08:56:36.570Z,19.1
2016-04-30T08:57:36.995Z,19.16
2016-04-30T08:58:36.967Z,19.16
2016-04-30T08:59:36.766Z,19.1
2016-04-30T09:00:36.769Z,19.1
2016-04-30T09:01:36.553Z,19.15
2016-04-30T09:02:36.556Z,19.13
2016-04-30T09:03:36.199Z,19.16
2016-04-30T09:04:37.171Z,19.07
2016-04-30T09:05:36.767Z,19.16
2016-04-30T09:06:36.755Z,19.13
2016-04-30T09:07:36.585Z,19.19
2016-04-30T09:08:36.541Z,19.16
2016-04-30T09:09:36.528Z,19.07
2016-04-30T09:10:36.733Z,19.09
2016-04-30T09:11:36.735Z,19.19
2016-04-30T09:12:36.207Z,19.13
2016-04-30T09:13:36.366Z,19.16
2016-04-30T09:14:36.323Z,19.13
2016-04-30T09:15:36.731Z,19.12
2016-04-30T09:16:36.765Z,19.12
2016-04-30T09:17:36.721Z,19.1
2016-04-30T09:18:36.146Z,19.17
2016-04-30T09:19:37.554Z,19.17
2016-04-30T09:20:36.917Z,19.2
2016-04-30T09:21:36.717Z,19.2
2016-04-30T09:22:36.141Z,19.06
2016-04-30T09:23:36.909Z,19.15
2016-04-30T09:24:36.693Z,19.07
2016-04-30T09:25:36.899Z,19.13
2016-04-30T09:26:36.481Z,19.15
2016-04-30T09:27:36.903Z,19.07
2016-04-30T09:28:36.485Z,19.07
2016-04-30T09:29:36.488Z,19.09
2016-04-30T09:30:36.475Z,19.16
2016-04-30T09:31:36.368Z,19.16
2016-04-30T09:32:36.480Z,19.12
2016-04-30T09:33:36.670Z,19.17
2016-04-30T09:34:38.392Z,19.13
2016-04-30T09:35:36.472Z,19.12
2016-04-30T09:36:36.461Z,19.23
2016-04-30T09:37:36.869Z,19.23
2016-04-30T09:38:36.308Z,19.28
2016-04-30T09:39:36.718Z,19.27
2016-04-30T09:40:36.439Z,19.32
2016-04-30T09:41:36.505Z,19.2
2016-04-30T09:42:36.288Z,19.27
2016-04-30T09:43:36.291Z,19.27
2016-04-30T09:44:36.496Z,19.28
2016-04-30T09:45:36.453Z,19.25
2016-04-30T09:46:36.643Z,19.25
2016-04-30T09:47:36.645Z,19.24
2016-04-30T09:48:36.633Z,19.34
2016-04-30T09:49:36.995Z,19.3
2016-04-30T09:50:36.262Z,19.3
2016-04-30T09:51:36.673Z,19.32
2016-04-30T09:52:36.425Z,19.38
2016-04-30T09:53:36.631Z,19.35
2016-04-30T09:54:36.415Z,19.37
2016-04-30T09:55:36.214Z,19.42
2016-04-30T09:56:36.623Z,19.42
2016-04-30T09:57:36.813Z,19.47
2016-04-30T09:58:36.253Z,19.42
2016-04-30T09:59:36.209Z,19.47
2016-04-30T10:00:36.243Z,19.45
2016-04-30T10:01:36.449Z,19.47
2016-04-30T10:02:36.092Z,19.5
2016-04-30T10:03:36.392Z,19.46
2016-04-30T10:04:36.801Z,19.47
2016-04-30T10:05:36.803Z,19.56
2016-04-30T10:06:36.384Z,19.53
2016-04-30T10:07:36.433Z,19.55
2016-04-30T10:08:36.593Z,19.6
2016-04-30T10:09:36.580Z,19.57
2016-04-30T10:10:36.426Z,19.5
2016-04-30T10:11:36.257Z,19.61
2016-04-30T10:12:36.775Z,19.61
2016-04-30T10:13:36.418Z,19.6
2016-04-30T10:14:36.797Z,19.6
2016-04-30T10:15:36.768Z,19.57
2016-04-30T10:16:36.365Z,19.61
2016-04-30T10:17:37.210Z,19.55
2016-04-30T10:18:36.573Z,19.6
2016-04-30T10:19:37.466Z,19.56
2016-04-30T10:20:36.140Z,19.56
2016-04-30T10:21:36.550Z,19.53
2016-04-30T10:22:36.334Z,19.6
2016-04-30T10:23:36.587Z,19.53
2016-04-30T10:24:36.543Z,19.56
2016-04-30T10:25:36.123Z,19.6
2016-04-30T10:26:36.344Z,19.63
2016-04-30T10:27:36.520Z,19.56
2016-04-30T10:28:36.725Z,19.6
2016-04-30T10:29:36.525Z,19.56
2016-04-30T10:30:36.528Z,19.56
2016-04-30T10:31:36.326Z,19.56
2016-04-30T10:32:36.720Z,19.61
2016-04-30T10:33:36.723Z,19.65
2016-04-30T10:34:36.319Z,19.61
2016-04-30T10:35:36.509Z,19.64
2016-04-30T10:36:36.511Z,19.67
2016-04-30T10:37:36.312Z,19.68
2016-04-30T10:38:36.299Z,19.67
2016-04-30T10:39:36.145Z,19.64
2016-04-30T10:40:36.508Z,19.7
2016-04-30T10:41:36.291Z,19.67
2016-04-30T10:42:36.497Z,19.64
2016-04-30T10:43:36.281Z,19.63
2016-04-30T10:44:36.346Z,19.57
2016-04-30T10:45:36.708Z,19.64
2016-04-30T10:46:36.133Z,19.61
2016-04-30T10:47:36.494Z,19.6
2016-04-30T10:48:36.076Z,19.68
2016-04-30T10:49:36.844Z,19.6
2016-04-30T10:50:36.268Z,19.64
2016-04-30T10:51:36.287Z,19.67
2016-04-30T10:52:36.461Z,19.64
2016-04-30T10:53:36.668Z,19.71
2016-04-30T10:54:36.264Z,19.64
2016-04-30T10:55:36.063Z,19.56
2016-04-30T10:56:36.457Z,19.63
2016-04-30T10:57:36.443Z,19.67
2016-04-30T10:58:36.056Z,19.61
2016-04-30T10:59:36.262Z,19.64
2016-04-30T11:00:36.279Z,19.61
2016-04-30T11:01:36.439Z,19.65
2016-04-30T11:02:36.034Z,19.64
2016-04-30T11:03:36.445Z,19.68
2016-04-30T11:04:36.040Z,19.7
2016-04-30T11:05:36.636Z,19.65
2016-04-30T11:06:36.234Z,19.7
2016-04-30T11:07:36.423Z,19.7
2016-04-30T11:08:36.457Z,19.68
2016-04-30T11:09:36.414Z,19.79
2016-04-30T11:10:36.620Z,19.68
2016-04-30T11:11:36.466Z,19.75
2016-04-30T11:12:36.218Z,19.75
2016-04-30T11:13:36.205Z,19.78
2016-04-30T11:14:36.230Z,19.72
2016-04-30T11:15:36.416Z,19.74
2016-04-30T11:16:37.043Z,19.8
2016-04-30T11:17:36.046Z,19.85
2016-04-30T11:18:36.408Z,19.83
2016-04-30T11:19:36.740Z,19.83
2016-04-30T11:20:36.196Z,19.82
2016-04-30T11:21:36.385Z,19.8
2016-04-30T11:22:36.669Z,19.9
2016-04-30T11:23:36.578Z,19.8
2016-04-30T11:24:36.378Z,19.83
2016-04-30T11:25:36.177Z,19.87
2016-04-30T11:26:36.211Z,19.9
2016-04-30T11:27:36.386Z,19.9
2016-04-30T11:28:36.592Z,19.97
2016-04-30T11:29:36.578Z,19.92
2016-04-30T11:30:36.425Z,19.85
2016-04-30T11:31:36.365Z,19.93
2016-04-30T11:32:36.367Z,20.02
2016-04-30T11:33:36.355Z,19.87
2016-04-30T11:34:36.451Z,19.9
2016-04-30T11:35:36.173Z,19.93
2016-04-30T11:36:36.567Z,19.95
2016-04-30T11:37:35.991Z,19.92
2016-04-30T11:38:36.352Z,19.98
2016-04-30T11:39:36.152Z,20
2016-04-30T11:40:36.186Z,19.98
2016-04-30T11:41:36.141Z,19.93
2016-04-30T11:42:36.333Z,19.9
2016-04-30T11:43:36.319Z,19.97
2016-04-30T11:44:36.182Z,19.97
2016-04-30T11:45:36.388Z,19.95
2016-04-30T11:46:36.109Z,20.08
2016-04-30T11:47:36.518Z,20.04
2016-04-30T11:48:36.332Z,20
2016-04-30T11:49:38.320Z,19.98
2016-04-30T11:50:36.526Z,20.11
2016-04-30T11:51:36.513Z,20
2016-04-30T11:52:36.359Z,20.01
2016-04-30T11:53:36.362Z,19.97
2016-04-30T11:54:36.317Z,19.97
2016-04-30T11:55:36.507Z,19.93
2016-04-30T11:56:36.104Z,19.9
2016-04-30T11:57:35.888Z,19.95
2016-04-30T11:58:36.297Z,19.89
2016-04-30T11:59:35.878Z,19.97
2016-04-30T12:00:36.287Z,19.9
2016-04-30T12:01:35.884Z,19.97
2016-04-30T12:02:36.496Z,19.97
2016-04-30T12:03:35.919Z,20
2016-04-30T12:04:36.469Z,19.95
2016-04-30T12:05:35.707Z,19.95
2016-04-30T12:06:36.287Z,19.92
2016-04-30T12:07:36.275Z,19.95
2016-04-30T12:08:36.293Z,19.98
2016-04-30T12:09:36.264Z,20.02
2016-04-30T12:10:36.079Z,19.95
2016-04-30T12:11:36.472Z,19.97
2016-04-30T12:12:36.272Z,19.92
2016-04-30T12:13:36.463Z,19.86
2016-04-30T12:14:36.480Z,19.93
2016-04-30T12:15:36.077Z,19.9
2016-04-30T12:16:36.268Z,19.97
2016-04-30T12:17:36.051Z,20
2016-04-30T12:18:36.054Z,19.89
2016-04-30T12:19:36.604Z,20.02
2016-04-30T12:20:36.029Z,19.92
2016-04-30T12:21:36.046Z,19.87
2016-04-30T12:22:36.252Z,19.93
2016-04-30T12:23:36.442Z,19.95
2016-04-30T12:24:36.445Z,19.93
2016-04-30T12:25:36.229Z,19.97
2016-04-30T12:26:36.435Z,19.9
2016-04-30T12:27:36.016Z,19.97
2016-04-30T12:28:35.878Z,19.95
2016-04-30T12:29:36.068Z,20.07
2016-04-30T12:30:36.431Z,19.95
2016-04-30T12:31:36.417Z,20.01
2016-04-30T12:32:35.856Z,20.02
2016-04-30T12:33:36.016Z,20.08
2016-04-30T12:34:35.706Z,20.01
2016-04-30T12:35:36.053Z,20
2016-04-30T12:36:36.211Z,20.11
2016-04-30T12:37:36.199Z,20.07
2016-04-30T12:38:36.009Z,20.1
2016-04-30T12:39:36.459Z,20.16
2016-04-30T12:40:36.096Z,20.08
2016-04-30T12:41:36.530Z,20.08
2016-04-30T12:42:36.370Z,20.1
2016-04-30T12:43:36.203Z,20.1
2016-04-30T12:44:36.424Z,20.1
2016-04-30T12:45:36.411Z,20.15
2016-04-30T12:46:36.068Z,20.11
2016-04-30T12:47:36.493Z,20.15
2016-04-30T12:48:36.460Z,20.16
2016-04-30T12:49:36.843Z,20.08
2016-04-30T12:50:36.460Z,20.11
2016-04-30T12:51:35.906Z,20.12
2016-04-30T12:52:36.273Z,20.11
2016-04-30T12:53:36.467Z,20.11
2016-04-30T12:54:36.519Z,20.19
2016-04-30T12:55:36.523Z,20.23
2016-04-30T12:56:36.310Z,20.22